createdAt,value
2023-05-24T00:01:56.825Z,110.28
2023-05-24T00:04:25.262Z,202.32
2023-05-24T00:06:54.799Z,116.28
2023-05-24T00:09:21.733Z,137.80
2023-05-24T00:11:48.383Z,104.65
2023-05-24T00:14:15.063Z,114.00
2023-05-24T00:16:41.715Z,101.38
2023-05-24T00:19:11.055Z,107.75
2023-05-24T00:21:37.854Z,109.45
2023-05-24T00:24:04.466Z,101.82
2023-05-24T00:26:31.002Z,102.63
2023-05-24T00:28:58.107Z,178.95
2023-05-24T00:31:24.735Z,97.25
2023-05-24T00:33:51.506Z,114.05
2023-05-24T00:36:18.616Z,106.40
2023-05-24T00:38:47.699Z,125.57
2023-05-24T00:41:16.338Z,101.57
2023-05-24T00:43:46.137Z,99.00
2023-05-24T00:46:28.207Z,112.00
2023-05-24T00:48:55.183Z,141.27
2023-05-24T00:51:21.951Z,97.38
2023-05-24T00:53:49.124Z,131.38
2023-05-24T00:56:16.784Z,103.85
2023-05-24T00:58:43.968Z,99.88
2023-05-24T01:01:10.644Z,115.45
2023-05-24T01:03:37.436Z,100.05
2023-05-24T01:06:06.256Z,123.82
2023-05-24T01:08:38.953Z,97.13
2023-05-24T01:11:36.338Z,117.50
2023-05-24T01:14:24.050Z,249.07
2023-05-24T01:16:56.361Z,112.40
2023-05-24T01:19:37.935Z,98.55
2023-05-24T01:22:15.854Z,163.10
2023-05-24T01:25:04.206Z,96.03
2023-05-24T01:27:33.645Z,102.30
2023-05-24T01:30:01.449Z,282.92
2023-05-24T01:32:28.611Z,95.60
2023-05-24T01:34:55.351Z,142.15
2023-05-24T01:37:22.076Z,142.57
2023-05-24T01:39:49.075Z,101.90
2023-05-24T01:42:27.240Z,100.55
2023-05-24T01:45:03.081Z,99.05
2023-05-24T01:47:44.614Z,186.38
2023-05-24T01:50:18.784Z,143.07
2023-05-24T01:52:46.476Z,104.43
2023-05-24T01:55:18.552Z,190.77
2023-05-24T01:57:46.953Z,100.55
2023-05-24T02:00:18.751Z,160.90
2023-05-24T02:02:45.768Z,95.57
2023-05-24T02:05:12.508Z,192.25
2023-05-24T02:07:39.211Z,99.20
2023-05-24T02:10:06.371Z,147.38
2023-05-24T02:12:33.007Z,92.13
2023-05-24T02:15:00.212Z,119.63
2023-05-24T02:17:27.564Z,94.25
2023-05-24T02:19:54.285Z,108.85
2023-05-24T02:22:22.326Z,96.07
2023-05-24T02:24:48.904Z,103.82
2023-05-24T02:27:15.500Z,123.07
2023-05-24T02:29:42.139Z,99.30
2023-05-24T02:32:08.837Z,116.22
2023-05-24T02:34:35.611Z,92.18
2023-05-24T02:37:02.230Z,174.57
2023-05-24T02:39:28.806Z,94.20
2023-05-24T02:41:55.409Z,118.47
2023-05-24T02:44:21.983Z,94.32
2023-05-24T02:46:48.749Z,133.98
2023-05-24T02:49:15.574Z,121.90
2023-05-24T02:51:42.176Z,97.38
2023-05-24T02:54:08.721Z,166.68
2023-05-24T02:56:35.267Z,93.93
2023-05-24T02:59:02.753Z,120.10
2023-05-24T03:01:29.882Z,91.75
2023-05-24T03:03:58.626Z,116.80
2023-05-24T03:06:25.348Z,96.32
2023-05-24T03:08:51.975Z,110.93
2023-05-24T03:11:22.040Z,117.45
2023-05-24T03:13:49.627Z,99.87
2023-05-24T03:16:16.954Z,117.93
2023-05-24T03:18:46.656Z,97.22
2023-05-24T03:21:15.030Z,117.47
2023-05-24T03:23:41.674Z,94.25
2023-05-24T03:26:08.337Z,109.53
2023-05-24T03:28:35.682Z,97.47
2023-05-24T03:31:02.523Z,99.85
2023-05-24T03:33:29.460Z,145.38
2023-05-24T03:35:56.418Z,97.88
2023-05-24T03:38:23.738Z,113.95
2023-05-24T03:40:51.204Z,95.88
2023-05-24T03:43:18.412Z,117.82
2023-05-24T03:45:52.446Z,101.03
2023-05-24T03:48:20.966Z,266.67
2023-05-24T03:50:48.264Z,93.35
2023-05-24T03:53:15.281Z,116.18
2023-05-24T03:55:41.839Z,177.98
2023-05-24T03:58:08.467Z,97.30
2023-05-24T04:00:35.517Z,114.20
2023-05-24T04:03:02.525Z,119.72
2023-05-24T04:05:29.886Z,99.60
2023-05-24T04:07:56.587Z,154.68
2023-05-24T04:10:23.329Z,95.28
2023-05-24T04:12:50.198Z,131.70
2023-05-24T04:15:16.863Z,150.43
2023-05-24T04:17:45.429Z,100.47
2023-05-24T04:20:12.988Z,179.73
2023-05-24T04:22:39.776Z,95.57
2023-05-24T04:25:07.569Z,141.90
2023-05-24T04:27:36.230Z,97.65
2023-05-24T04:30:03.233Z,123.63
2023-05-24T04:32:30.405Z,94.07
2023-05-24T04:34:57.290Z,98.78
2023-05-24T04:37:24.683Z,123.50
2023-05-24T04:39:51.689Z,105.57
2023-05-24T04:42:18.299Z,122.47
2023-05-24T04:44:44.962Z,98.45
2023-05-24T04:47:12.771Z,150.40
2023-05-24T04:49:39.573Z,104.03
2023-05-24T04:52:06.611Z,108.63
2023-05-24T04:54:33.545Z,103.25
2023-05-24T04:57:00.123Z,106.22
2023-05-24T04:59:26.688Z,121.90
2023-05-24T05:01:53.282Z,106.18
2023-05-24T05:04:19.804Z,126.68
2023-05-24T05:06:47.602Z,106.80
2023-05-24T05:09:14.771Z,111.10
2023-05-24T05:11:41.501Z,190.10
2023-05-24T05:14:09.565Z,104.55
2023-05-24T05:16:36.880Z,135.77
2023-05-24T05:19:06.679Z,107.10
2023-05-24T05:21:34.186Z,121.97
2023-05-24T05:24:01.226Z,107.95
2023-05-24T05:26:28.461Z,130.45
2023-05-24T05:28:55.071Z,117.18
2023-05-24T05:31:22.296Z,107.82
2023-05-24T05:33:49.273Z,139.60
2023-05-24T05:36:16.516Z,111.90
2023-05-24T05:38:43.416Z,127.18
2023-05-24T05:41:10.098Z,106.25
2023-05-24T05:43:37.200Z,126.88
2023-05-24T05:46:03.878Z,112.97
2023-05-24T05:48:30.519Z,163.85
2023-05-24T05:50:57.120Z,118.30
2023-05-24T05:53:25.001Z,277.17
2023-05-24T05:55:51.618Z,111.93
2023-05-24T05:58:18.236Z,167.18
2023-05-24T06:00:44.847Z,113.43
2023-05-24T06:03:11.541Z,123.60
2023-05-24T06:05:38.426Z,126.68
2023-05-24T06:08:05.132Z,119.10
2023-05-24T06:10:31.783Z,131.07
2023-05-24T06:12:58.328Z,118.15
2023-05-24T06:15:24.893Z,139.13
2023-05-24T06:17:52.666Z,117.40
2023-05-24T06:20:19.539Z,235.90
2023-05-24T06:22:48.550Z,109.60
2023-05-24T06:25:19.299Z,264.23
2023-05-24T06:27:46.163Z,147.77
2023-05-24T06:30:13.732Z,188.77
2023-05-24T06:32:40.709Z,119.70
2023-05-24T06:35:08.019Z,159.75
2023-05-24T06:37:34.845Z,139.05
2023-05-24T06:40:02.388Z,122.07
2023-05-24T06:42:28.941Z,191.05
2023-05-24T06:44:55.986Z,127.18
2023-05-24T06:47:22.738Z,145.40
2023-05-24T06:49:49.918Z,127.95
2023-05-24T06:52:16.639Z,170.88
2023-05-24T06:54:43.393Z,127.20
2023-05-24T06:57:10.525Z,154.73
2023-05-24T06:59:37.071Z,147.77
2023-05-24T07:02:04.508Z,119.15
2023-05-24T07:04:31.588Z,138.43
2023-05-24T07:06:58.701Z,123.70
2023-05-24T07:09:25.330Z,150.90
2023-05-24T07:11:52.696Z,123.40
2023-05-24T07:14:19.380Z,179.88
2023-05-24T07:16:46.727Z,120.90
2023-05-24T07:19:13.621Z,129.13
2023-05-24T07:21:40.449Z,118.32
2023-05-24T07:24:07.060Z,114.85
2023-05-24T07:26:33.684Z,164.77
2023-05-24T07:29:00.299Z,124.63
2023-05-24T07:31:27.584Z,119.38
2023-05-24T07:33:54.150Z,133.45
2023-05-24T07:36:21.526Z,127.13
2023-05-24T07:38:48.826Z,137.02
2023-05-24T07:41:15.505Z,131.48
2023-05-24T07:43:42.124Z,122.18
2023-05-24T07:46:10.349Z,205.90
2023-05-24T07:48:36.987Z,128.93
2023-05-24T07:51:03.696Z,145.80
2023-05-24T07:53:30.222Z,126.45
2023-05-24T07:55:56.777Z,143.40
2023-05-24T07:58:23.356Z,127.57
2023-05-24T08:00:50.044Z,134.18
2023-05-24T08:03:17.852Z,123.43
2023-05-24T08:05:44.884Z,124.80
2023-05-24T08:08:11.690Z,138.82
2023-05-24T08:10:38.377Z,121.75
2023-05-24T08:13:05.626Z,217.15
2023-05-24T08:15:32.568Z,125.28
2023-05-24T08:17:59.213Z,139.57
2023-05-24T08:20:25.824Z,120.05
2023-05-24T08:22:52.687Z,130.75
2023-05-24T08:25:20.072Z,177.35
2023-05-24T08:27:46.826Z,125.43
2023-05-24T08:30:14.187Z,193.88
2023-05-24T08:32:40.974Z,119.30
2023-05-24T08:35:20.298Z,200.85
2023-05-24T08:37:48.997Z,134.82
2023-05-24T08:40:16.152Z,221.35
2023-05-24T08:42:42.916Z,131.48
2023-05-24T08:45:12.661Z,210.95
2023-05-24T08:47:40.122Z,135.00
2023-05-24T08:50:08.251Z,208.20
2023-05-24T08:52:35.966Z,125.45
2023-05-24T08:55:05.208Z,158.73
2023-05-24T08:57:34.499Z,132.35
2023-05-24T09:00:01.513Z,160.27
2023-05-24T09:02:28.450Z,122.22
2023-05-24T09:04:55.341Z,143.13
2023-05-24T09:07:24.214Z,121.68
2023-05-24T09:10:05.199Z,136.18
2023-05-24T09:12:38.066Z,151.20
2023-05-24T09:15:07.756Z,159.05
2023-05-24T09:17:35.517Z,149.45
2023-05-24T09:20:06.766Z,135.07
2023-05-24T09:22:35.782Z,158.82
2023-05-24T09:25:06.022Z,153.27
2023-05-24T09:27:34.461Z,164.90
2023-05-24T09:30:04.472Z,145.73
2023-05-24T09:32:31.752Z,170.70
2023-05-24T09:34:59.102Z,142.52
2023-05-24T09:37:31.049Z,160.82
2023-05-24T09:39:59.222Z,140.23
2023-05-24T09:42:28.204Z,218.52
2023-05-24T09:45:09.441Z,139.38
2023-05-24T09:50:05.280Z,147.57
2023-05-24T09:52:33.862Z,149.15
2023-05-24T09:55:02.362Z,141.90
2023-05-24T09:57:28.996Z,200.63
2023-05-24T09:59:56.453Z,143.63
2023-05-24T10:02:25.850Z,139.48
2023-05-24T10:05:01.467Z,148.43
2023-05-24T10:07:28.906Z,153.85
2023-05-24T10:09:55.719Z,131.15
2023-05-24T10:12:23.272Z,135.40
2023-05-24T10:14:51.375Z,140.63
2023-05-24T10:17:18.026Z,130.60
2023-05-24T10:19:44.931Z,156.30
2023-05-24T10:22:12.947Z,146.43
2023-05-24T10:24:42.407Z,179.07
2023-05-24T10:27:14.445Z,170.77
2023-05-24T10:29:46.671Z,198.13
2023-05-24T10:32:18.846Z,169.15
2023-05-24T10:34:46.420Z,184.77
2023-05-24T10:37:13.034Z,176.63
2023-05-24T10:39:41.753Z,210.40
2023-05-24T10:42:09.925Z,185.70
2023-05-24T10:44:37.255Z,205.88
2023-05-24T10:47:14.512Z,168.68
2023-05-24T10:49:52.416Z,214.70
2023-05-24T10:52:19.422Z,176.57
2023-05-24T10:55:09.354Z,213.43
2023-05-24T10:57:36.698Z,231.57
2023-05-24T11:00:34.680Z,195.35
2023-05-24T11:03:04.429Z,186.13
2023-05-24T11:05:36.402Z,220.55
2023-05-24T11:08:04.196Z,230.02
2023-05-24T11:10:31.734Z,169.50
2023-05-24T11:13:02.235Z,209.52
2023-05-24T11:15:29.676Z,196.77
2023-05-24T11:18:14.375Z,305.02
2023-05-24T11:20:48.138Z,174.90
2023-05-24T11:23:16.026Z,366.30
2023-05-24T11:25:43.181Z,170.32
2023-05-24T11:28:11.208Z,185.00
2023-05-24T11:30:45.869Z,169.32
2023-05-24T11:33:20.013Z,212.05
2023-05-24T11:35:47.203Z,155.38
2023-05-24T11:38:15.362Z,206.77
2023-05-24T11:40:45.901Z,173.25
2023-05-24T11:43:18.055Z,189.60
2023-05-24T11:45:50.419Z,168.35
2023-05-24T11:48:18.832Z,164.40
2023-05-24T11:50:50.162Z,135.98
2023-05-24T11:53:20.220Z,220.45
2023-05-24T11:55:46.898Z,140.60
2023-05-24T11:58:23.283Z,168.38
2023-05-24T12:00:50.966Z,136.73
2023-05-24T12:03:17.697Z,166.88
2023-05-24T12:05:44.430Z,133.35
2023-05-24T12:08:12.855Z,152.95
2023-05-24T12:13:21.580Z,139.85
2023-05-24T12:15:53.897Z,153.98
2023-05-24T12:18:24.131Z,245.07
2023-05-24T12:20:51.479Z,143.93
2023-05-24T12:23:24.143Z,248.43
2023-05-24T12:25:50.878Z,165.43
2023-05-24T12:28:21.836Z,198.30
2023-05-24T12:30:49.894Z,164.02
2023-05-24T12:33:19.280Z,193.18
2023-05-24T12:35:46.642Z,197.10
2023-05-24T12:38:13.629Z,273.05
2023-05-24T12:40:44.002Z,201.25
2023-05-24T12:43:14.776Z,319.52
2023-05-24T12:45:41.692Z,326.20
2023-05-24T12:48:08.708Z,196.50
2023-05-24T12:50:35.626Z,207.68
2023-05-24T12:53:02.343Z,212.25
2023-05-24T12:55:29.135Z,212.25
2023-05-24T12:57:56.569Z,229.73
2023-05-24T13:00:27.314Z,261.20
2023-05-24T13:02:59.442Z,274.23
2023-05-24T13:05:27.769Z,265.65
2023-05-24T13:07:56.968Z,312.60
2023-05-24T13:10:24.630Z,240.48
2023-05-24T13:12:51.653Z,315.20
2023-05-24T13:15:19.600Z,321.60
2023-05-24T13:17:47.392Z,232.40
2023-05-24T13:20:14.121Z,275.75
2023-05-24T13:22:40.821Z,216.63
2023-05-24T13:25:09.317Z,302.08
2023-05-24T13:27:35.961Z,217.30
2023-05-24T13:30:03.274Z,324.17
2023-05-24T13:32:29.898Z,209.77
2023-05-24T13:34:56.497Z,285.73
2023-05-24T13:37:23.937Z,216.82
2023-05-24T13:39:50.936Z,292.83
2023-05-24T13:42:17.852Z,214.15
2023-05-24T13:44:44.577Z,293.70
2023-05-24T13:47:11.273Z,212.77
2023-05-24T13:49:38.094Z,224.85
2023-05-24T13:52:04.854Z,260.33
2023-05-24T13:54:32.101Z,319.38
2023-05-24T13:56:59.478Z,434.25
2023-05-24T13:59:27.064Z,414.27
2023-05-24T14:01:54.020Z,464.30
2023-05-24T14:04:20.672Z,454.23
2023-05-24T14:06:47.244Z,440.33
2023-05-24T14:09:15.138Z,371.52
2023-05-24T14:11:41.890Z,408.67
2023-05-24T14:14:57.882Z,299.45
2023-05-24T14:16:55.231Z,264.48
2023-05-24T14:19:22.099Z,254.90
2023-05-24T14:21:48.702Z,240.75
2023-05-24T14:24:15.703Z,212.45
2023-05-24T14:26:42.617Z,230.73
2023-05-24T14:29:09.652Z,221.07
2023-05-24T14:31:42.127Z,219.05
2023-05-24T14:34:10.903Z,227.07
2023-05-24T14:36:38.554Z,217.27
2023-05-24T14:39:06.834Z,217.65
2023-05-24T14:41:34.238Z,203.13
2023-05-24T14:44:01.393Z,224.38
2023-05-24T14:46:28.004Z,203.63
2023-05-24T14:48:54.554Z,237.50
2023-05-24T14:51:21.127Z,205.15
2023-05-24T14:53:47.770Z,255.88
2023-05-24T14:56:14.701Z,194.57
2023-05-24T14:58:41.581Z,197.20
2023-05-24T15:01:08.324Z,184.77
2023-05-24T15:03:35.640Z,172.15
2023-05-24T15:06:03.254Z,193.68
2023-05-24T15:08:29.829Z,172.02
2023-05-24T15:10:58.731Z,177.75
2023-05-24T15:13:25.950Z,173.10
2023-05-24T15:15:54.733Z,174.73
2023-05-24T15:18:21.400Z,184.82
2023-05-24T15:20:48.480Z,170.40
2023-05-24T15:23:15.489Z,187.23
2023-05-24T15:25:42.843Z,173.68
2023-05-24T15:28:12.712Z,202.55
2023-05-24T15:30:39.438Z,163.63
2023-05-24T15:33:06.089Z,192.95
2023-05-24T15:35:32.725Z,177.45
2023-05-24T15:37:59.421Z,179.75
2023-05-24T15:40:26.218Z,169.75
2023-05-24T15:42:52.989Z,179.02
2023-05-24T15:45:19.990Z,257.42
2023-05-24T15:47:46.888Z,182.45
2023-05-24T15:50:13.594Z,266.83
2023-05-24T15:52:40.569Z,169.35
2023-05-24T15:55:07.879Z,253.85
2023-05-24T15:57:34.521Z,181.25
2023-05-24T16:00:03.739Z,205.05
2023-05-24T16:02:38.950Z,199.88
2023-05-24T16:05:06.243Z,212.13
2023-05-24T16:07:33.154Z,222.20
2023-05-24T16:09:59.780Z,190.50
2023-05-24T16:12:26.339Z,210.82
2023-05-24T16:14:52.943Z,176.73
2023-05-24T16:17:19.555Z,195.93
2023-05-24T16:19:47.126Z,192.27
2023-05-24T16:22:13.981Z,178.38
2023-05-24T16:24:40.660Z,202.05
2023-05-24T16:27:09.334Z,168.55
2023-05-24T16:29:37.075Z,203.65
2023-05-24T16:32:04.092Z,171.80
2023-05-24T16:34:31.245Z,382.45
2023-05-24T16:37:01.418Z,181.45
2023-05-24T16:39:28.003Z,288.85
2023-05-24T16:41:54.629Z,198.60
2023-05-24T16:44:21.295Z,206.95
2023-05-24T16:46:48.136Z,194.95
2023-05-24T16:49:15.353Z,245.25
2023-05-24T16:51:41.914Z,187.75
2023-05-24T16:54:08.969Z,188.77
2023-05-24T16:56:37.214Z,223.50
2023-05-24T16:59:04.463Z,184.95
2023-05-24T17:01:31.429Z,208.10
2023-05-24T17:03:58.074Z,179.45
2023-05-24T17:06:24.782Z,206.45
2023-05-24T17:08:51.364Z,167.07
2023-05-24T17:11:19.706Z,188.75
2023-05-24T17:13:46.945Z,171.73
2023-05-24T17:16:14.621Z,231.43
2023-05-24T17:18:41.479Z,205.95
2023-05-24T17:21:08.028Z,176.65
2023-05-24T17:23:36.559Z,183.45
2023-05-24T17:26:03.808Z,168.75
2023-05-24T17:28:30.522Z,178.90
2023-05-24T17:30:58.282Z,196.45
2023-05-24T17:33:26.307Z,180.98
2023-05-24T17:35:53.714Z,190.07
2023-05-24T17:38:20.515Z,180.00
2023-05-24T17:40:48.810Z,237.02
2023-05-24T17:43:15.320Z,172.07
2023-05-24T17:45:42.112Z,277.98
2023-05-24T17:48:08.925Z,171.43
2023-05-24T17:50:36.266Z,195.10
2023-05-24T17:53:03.221Z,175.50
2023-05-24T17:55:29.806Z,178.73
2023-05-24T17:57:56.451Z,174.00
2023-05-24T18:00:23.054Z,192.50
2023-05-24T18:02:49.721Z,187.82
2023-05-24T18:05:16.585Z,193.27
2023-05-24T18:07:44.303Z,257.88
2023-05-24T18:10:11.390Z,219.38
2023-05-24T18:12:38.605Z,161.80
2023-05-24T18:15:06.287Z,213.45
2023-05-24T18:17:32.918Z,165.52
2023-05-24T18:19:59.737Z,201.70
2023-05-24T18:22:26.759Z,176.30
2023-05-24T18:24:53.309Z,171.57
2023-05-24T18:27:20.019Z,233.13
2023-05-24T18:29:46.532Z,166.55
2023-05-24T18:32:13.159Z,284.15
2023-05-24T18:34:39.780Z,156.80
2023-05-24T18:37:06.452Z,179.82
2023-05-24T18:39:32.983Z,156.38
2023-05-24T18:41:59.575Z,161.43
2023-05-24T18:44:26.111Z,163.32
2023-05-24T18:46:55.465Z,167.85
2023-05-24T18:49:22.931Z,208.18
2023-05-24T18:51:49.675Z,156.85
2023-05-24T18:54:16.267Z,331.40
2023-05-24T18:56:43.156Z,158.60
2023-05-24T18:59:12.367Z,193.20
2023-05-24T19:01:39.194Z,156.93
2023-05-24T19:04:05.969Z,206.95
2023-05-24T19:06:32.543Z,148.77
2023-05-24T19:09:00.603Z,203.13
2023-05-24T19:11:28.064Z,171.43
2023-05-24T19:13:54.675Z,150.35
2023-05-24T19:16:21.262Z,223.02
2023-05-24T19:18:48.057Z,186.10
2023-05-24T19:21:14.924Z,155.88
2023-05-24T19:23:42.263Z,167.05
2023-05-24T19:26:09.515Z,155.68
2023-05-24T19:28:40.265Z,163.25
2023-05-24T19:31:07.155Z,142.15
2023-05-24T19:33:33.845Z,160.77
2023-05-24T19:36:00.453Z,207.55
2023-05-24T19:38:27.033Z,144.38
2023-05-24T19:40:53.626Z,265.70
2023-05-24T19:43:20.224Z,147.05
2023-05-24T19:45:47.936Z,181.40
2023-05-24T19:48:14.615Z,147.52
2023-05-24T19:50:41.308Z,148.13
2023-05-24T19:53:07.882Z,139.07
2023-05-24T19:55:36.408Z,149.00
2023-05-24T19:58:02.940Z,138.38
2023-05-24T20:00:29.577Z,134.23
2023-05-24T20:02:56.252Z,157.95
2023-05-24T20:05:22.881Z,139.07
2023-05-24T20:07:49.476Z,175.73
2023-05-24T20:10:16.153Z,189.25
2023-05-24T20:12:42.884Z,262.85
2023-05-24T20:15:10.723Z,228.43
2023-05-24T20:17:37.353Z,147.82
2023-05-24T20:20:04.409Z,153.85
2023-05-24T20:22:31.052Z,138.63
2023-05-24T20:24:57.646Z,148.50
2023-05-24T20:27:24.211Z,145.10
2023-05-24T20:29:50.990Z,147.68
2023-05-24T20:32:17.660Z,156.73
2023-05-24T20:34:44.234Z,139.23
2023-05-24T20:37:10.806Z,145.95
2023-05-24T20:39:37.389Z,159.13
2023-05-24T20:42:04.101Z,144.63
2023-05-24T20:44:32.510Z,169.73
2023-05-24T20:46:59.321Z,146.45
2023-05-24T20:49:26.312Z,163.52
2023-05-24T20:51:52.968Z,163.13
2023-05-24T20:54:19.517Z,137.90
2023-05-24T20:56:46.246Z,145.82
2023-05-24T20:59:12.976Z,188.60
2023-05-24T21:01:39.823Z,196.85
2023-05-24T21:04:06.552Z,154.52
2023-05-24T21:06:34.211Z,140.93
2023-05-24T21:09:01.761Z,221.55
2023-05-24T21:11:28.423Z,138.55
2023-05-24T21:13:56.624Z,170.32
2023-05-24T21:16:23.654Z,156.15
2023-05-24T21:18:51.461Z,145.05
2023-05-24T21:21:18.587Z,143.52
2023-05-24T21:23:45.767Z,139.35
2023-05-24T21:26:12.363Z,147.88
2023-05-24T21:28:38.994Z,158.73
2023-05-24T21:31:06.860Z,140.77
2023-05-24T21:33:53.928Z,147.75
2023-05-24T21:37:01.140Z,140.82
2023-05-24T21:39:27.960Z,168.32
2023-05-24T21:41:54.523Z,192.95
2023-05-24T21:44:21.076Z,143.77
2023-05-24T21:46:48.095Z,138.82
2023-05-24T21:49:15.181Z,144.85
2023-05-24T21:51:42.029Z,168.75
2023-05-24T21:54:08.964Z,141.88
2023-05-24T21:56:35.833Z,133.38
2023-05-24T21:59:02.667Z,146.50
2023-05-24T22:01:30.072Z,152.15
2023-05-24T22:03:57.409Z,133.82
2023-05-24T22:06:24.227Z,131.50
2023-05-24T22:08:50.954Z,161.23
2023-05-24T22:11:18.103Z,131.32
2023-05-24T22:13:44.936Z,143.85
2023-05-24T22:16:11.514Z,138.90
2023-05-24T22:18:38.471Z,141.23
2023-05-24T22:21:05.024Z,126.10
2023-05-24T22:23:31.576Z,132.35
2023-05-24T22:25:58.202Z,130.88
2023-05-24T22:28:25.079Z,124.65
2023-05-24T22:30:52.375Z,167.85
2023-05-24T22:33:19.998Z,122.15
2023-05-24T22:35:46.954Z,133.90
2023-05-24T22:38:13.600Z,128.65
2023-05-24T22:40:42.207Z,130.20
2023-05-24T22:43:09.208Z,131.10
2023-05-24T22:45:36.077Z,133.27
2023-05-24T22:48:22.748Z,129.18
2023-05-24T22:51:22.484Z,129.30
2023-05-24T22:53:49.414Z,131.90
2023-05-24T22:56:16.409Z,140.35
2023-05-24T22:58:43.206Z,125.78
2023-05-24T23:01:09.860Z,135.02
2023-05-24T23:03:36.489Z,126.75
2023-05-24T23:06:05.915Z,129.50
2023-05-24T23:08:33.323Z,124.60
2023-05-24T23:11:00.655Z,125.40
2023-05-24T23:13:36.126Z,124.07
2023-05-24T23:16:03.744Z,132.80
2023-05-24T23:18:32.872Z,131.63
2023-05-24T23:21:01.131Z,130.95
2023-05-24T23:23:27.780Z,124.32
2023-05-24T23:25:55.206Z,129.68
2023-05-24T23:28:22.581Z,139.63
2023-05-24T23:30:49.251Z,125.35
2023-05-24T23:33:16.381Z,137.07
2023-05-24T23:35:43.585Z,129.52
2023-05-24T23:38:10.686Z,135.25
2023-05-24T23:40:37.346Z,123.88
2023-05-24T23:43:04.190Z,126.75
2023-05-24T23:45:31.439Z,125.60
2023-05-24T23:47:58.569Z,127.30
2023-05-24T23:50:25.434Z,136.18
2023-05-24T23:52:52.261Z,127.90
2023-05-24T23:55:18.918Z,176.10
2023-05-24T23:57:46.014Z,126.65
